createdAt,value
2018-02-06T00:01:14.332Z,26.87
2018-02-06T00:03:40.543Z,26.23
2018-02-06T00:06:06.853Z,30.63
2018-02-06T00:08:33.841Z,35.10
2018-02-06T00:11:00.391Z,35.80
2018-02-06T00:13:26.812Z,32.20
2018-02-06T00:15:53.326Z,28.13
2018-02-06T00:18:19.533Z,27.50
2018-02-06T00:20:45.768Z,24.67
2018-02-06T00:23:11.922Z,23.90
2018-02-06T00:25:38.279Z,22.47
2018-02-06T00:28:05.329Z,28.40
2018-02-06T00:30:31.564Z,31.50
2018-02-06T00:32:57.860Z,24.63
2018-02-06T00:35:24.184Z,20.37
2018-02-06T00:37:50.386Z,24.43
2018-02-06T00:40:16.624Z,27.00
2018-02-06T00:42:42.842Z,25.97
2018-02-06T00:45:09.143Z,19.70
2018-02-06T00:47:43.117Z,22.83
2018-02-06T00:50:10.166Z,17.90
2018-02-06T00:52:36.732Z,21.77
2018-02-06T00:55:02.970Z,21.30
2018-02-06T00:57:29.150Z,21.13
2018-02-06T00:59:56.232Z,20.40
2018-02-06T01:02:23.497Z,22.53
2018-02-06T01:04:49.759Z,22.23
2018-02-06T01:07:15.998Z,18.80
2018-02-06T01:09:42.187Z,17.13
2018-02-06T01:12:08.493Z,17.03
2018-02-06T01:14:36.471Z,24.00
2018-02-06T01:17:02.796Z,18.73
2018-02-06T01:19:29.212Z,17.57
2018-02-06T01:21:55.475Z,15.63
2018-02-06T01:24:21.652Z,22.93
2018-02-06T01:26:47.941Z,18.90
2018-02-06T01:29:14.251Z,26.07
2018-02-06T01:31:40.498Z,18.97
2018-02-06T01:34:06.670Z,17.93
2018-02-06T01:36:33.645Z,21.67
2018-02-06T01:38:59.886Z,16.27
2018-02-06T01:41:26.174Z,19.13
2018-02-06T01:43:53.260Z,17.90
2018-02-06T01:46:19.550Z,18.77
2018-02-06T01:48:46.551Z,23.20
2018-02-06T01:51:12.840Z,16.03
2018-02-06T01:53:39.205Z,18.47
2018-02-06T01:56:05.432Z,16.30
2018-02-06T01:58:31.758Z,17.77
2018-02-06T02:00:58.041Z,17.40
2018-02-06T02:03:24.335Z,16.60
2018-02-06T02:05:50.824Z,20.47
2018-02-06T02:08:17.286Z,15.37
2018-02-06T02:10:43.663Z,18.47
2018-02-06T02:13:10.664Z,14.70
2018-02-06T02:15:36.879Z,12.70
2018-02-06T02:18:03.148Z,12.10
2018-02-06T02:20:30.097Z,14.23
2018-02-06T02:22:56.386Z,15.90
2018-02-06T02:25:22.634Z,17.13
2018-02-06T02:27:49.796Z,18.23
2018-02-06T02:30:16.773Z,15.37
2018-02-06T02:32:43.138Z,17.63
2018-02-06T02:35:09.579Z,13.27
2018-02-06T02:37:35.807Z,15.50
2018-02-06T02:40:02.095Z,17.00
2018-02-06T04:39:34.083Z,20.27
2018-02-06T04:42:00.413Z,17.83
2018-02-06T04:44:26.581Z,19.27
2018-02-06T04:46:52.805Z,26.80
2018-02-06T04:49:19.852Z,17.90
2018-02-06T04:51:46.240Z,25.07
2018-02-06T04:54:12.597Z,18.77
2018-02-06T04:56:39.583Z,22.97
2018-02-06T04:59:05.758Z,27.23
2018-02-06T05:01:32.906Z,25.50
2018-02-06T05:04:00.249Z,25.87
2018-02-06T05:06:26.470Z,21.60
2018-02-06T05:08:52.713Z,23.17
2018-02-06T05:11:19.723Z,30.00
2018-02-06T05:13:46.047Z,21.57
2018-02-06T05:16:12.445Z,23.33
2018-02-06T05:18:38.698Z,23.47
2018-02-06T05:21:05.007Z,24.07
2018-02-06T05:23:31.261Z,25.03
2018-02-06T05:25:57.479Z,28.50
2018-02-06T05:28:23.761Z,29.80
2018-02-06T05:30:50.813Z,26.93
2018-02-06T05:33:18.080Z,25.40
2018-02-06T05:35:44.346Z,20.97
2018-02-06T05:38:10.685Z,29.70
2018-02-06T05:40:37.671Z,24.77
2018-02-06T05:43:04.641Z,27.67
2018-02-06T05:45:30.942Z,31.20
2018-02-06T05:47:58.037Z,24.00
2018-02-06T05:50:24.423Z,26.13
2018-02-06T05:52:50.795Z,25.17
2018-02-06T05:55:17.126Z,29.30
2018-02-06T05:57:43.376Z,29.60
2018-02-06T06:00:11.330Z,26.17
2018-02-06T06:02:37.822Z,28.77
2018-02-06T06:05:04.025Z,27.33
2018-02-06T06:07:31.129Z,29.37
2018-02-06T06:09:57.409Z,34.83
2018-02-06T06:12:23.792Z,33.10
2018-02-06T06:14:50.118Z,29.57
2018-02-06T06:17:16.423Z,35.10
2018-02-06T06:19:42.848Z,36.27
2018-02-06T06:22:09.202Z,27.90
2018-02-06T06:24:35.498Z,30.93
2018-02-06T06:27:01.827Z,30.63
2018-02-06T06:29:28.187Z,46.60
2018-02-06T06:31:54.447Z,35.50
2018-02-06T06:34:21.414Z,33.67
2018-02-06T06:36:47.601Z,38.20
2018-02-06T06:39:15.398Z,41.33
2018-02-06T06:41:42.406Z,47.13
2018-02-06T06:44:08.598Z,35.90
2018-02-06T06:46:34.869Z,30.27
2018-02-06T06:49:02.913Z,36.07
2018-02-06T06:51:29.114Z,33.57
2018-02-06T06:53:55.589Z,39.53
2018-02-06T06:56:21.833Z,29.93
2018-02-06T06:58:48.850Z,30.57
2018-02-06T07:01:15.119Z,35.23
2018-02-06T07:03:41.461Z,33.43
2018-02-06T07:06:07.758Z,32.70
2018-02-06T07:08:34.769Z,27.33
2018-02-06T07:11:01.203Z,35.80
2018-02-06T07:13:27.430Z,44.93
2018-02-06T07:15:53.709Z,36.23
2018-02-06T07:18:20.683Z,46.03
2018-02-06T07:20:47.054Z,52.20
2018-02-06T07:23:13.455Z,60.70
2018-02-06T07:25:39.736Z,64.53
2018-02-06T07:28:06.718Z,66.67
2018-02-06T07:30:33.920Z,57.63
2018-02-06T07:33:00.887Z,48.23
2018-02-06T07:35:42.241Z,69.10
2018-02-06T07:38:09.265Z,99.57
2018-02-06T07:40:35.910Z,69.60
2018-02-06T07:43:02.995Z,62.67
2018-02-06T07:45:29.410Z,63.00
2018-02-06T07:47:56.449Z,38.10
2018-02-06T07:50:23.617Z,54.47
2018-02-06T07:52:49.848Z,54.17
2018-02-06T07:55:16.171Z,57.83
2018-02-06T07:57:42.491Z,39.60
2018-02-06T08:00:09.592Z,43.43
2018-02-06T08:02:36.038Z,51.07
2018-02-06T08:05:02.247Z,62.57
2018-02-06T08:07:28.593Z,62.83
2018-02-06T08:09:56.370Z,43.53
2018-02-06T08:12:23.386Z,32.03
2018-02-06T08:14:49.591Z,43.67
2018-02-06T08:17:15.956Z,29.23
2018-02-06T08:19:42.375Z,28.80
2018-02-06T08:22:08.692Z,28.97
2018-02-06T08:24:35.001Z,25.00
2018-02-06T08:27:01.379Z,29.00
2018-02-06T08:29:28.439Z,31.07
2018-02-06T08:31:55.603Z,27.10
2018-02-06T08:34:22.081Z,25.40
2018-02-06T08:36:48.384Z,26.37
2018-02-06T08:39:14.896Z,29.87
2018-02-06T08:41:42.006Z,28.73
2018-02-06T08:44:08.310Z,28.93
2018-02-06T08:46:34.621Z,29.50
2018-02-06T08:49:01.099Z,25.07
2018-02-06T08:51:27.418Z,26.50
2018-02-06T08:53:53.993Z,30.47
2018-02-06T08:56:20.432Z,27.97
2018-02-06T08:58:46.988Z,28.33
2018-02-06T09:01:13.372Z,28.23
2018-02-06T09:03:39.632Z,28.30
2018-02-06T09:06:06.206Z,30.50
2018-02-06T09:08:32.633Z,29.47
2018-02-06T09:10:59.055Z,32.17
2018-02-06T09:13:25.579Z,27.50
2018-02-06T09:15:52.122Z,32.13
2018-02-06T09:18:18.361Z,25.60
2018-02-06T09:20:44.781Z,35.83
2018-02-06T09:23:11.062Z,38.60
2018-02-06T09:25:38.170Z,35.67
2018-02-06T09:28:04.525Z,38.33
2018-02-06T09:30:31.765Z,35.90
2018-02-06T09:32:58.046Z,30.93
2018-02-06T09:35:24.500Z,42.70
2018-02-06T09:40:23.727Z,45.97
2018-02-06T09:42:50.002Z,45.47
2018-02-06T09:45:16.584Z,44.07
2018-02-06T09:47:43.471Z,49.93
2018-02-06T09:50:10.512Z,71.90
2018-02-06T09:52:36.855Z,63.17
2018-02-06T09:55:03.144Z,45.53
2018-02-06T09:57:30.186Z,44.37
2018-02-06T09:59:57.181Z,49.77
2018-02-06T10:02:23.651Z,45.77
2018-02-06T10:04:50.108Z,44.00
2018-02-06T10:07:17.134Z,44.23
2018-02-06T10:09:43.395Z,38.83
2018-02-06T10:12:10.395Z,38.53
2018-02-06T10:14:37.842Z,36.87
2018-02-06T10:17:04.195Z,44.50
2018-02-06T10:19:30.491Z,45.43
2018-02-06T10:21:56.701Z,42.27
2018-02-06T10:24:22.893Z,35.90
2018-02-06T10:26:49.947Z,34.00
2018-02-06T10:29:16.842Z,33.10
2018-02-06T10:31:43.011Z,42.77
2018-02-06T10:34:09.949Z,46.63
2018-02-06T10:36:36.124Z,47.23
2018-02-06T10:39:02.786Z,36.90
2018-02-06T10:41:29.114Z,45.57
2018-02-06T10:43:55.442Z,38.73
2018-02-06T10:46:21.761Z,42.00
2018-02-06T10:48:48.214Z,42.50
2018-02-06T10:51:14.825Z,41.73
2018-02-06T10:53:40.999Z,36.03
2018-02-06T10:56:08.104Z,39.40
2018-02-06T10:58:34.502Z,37.53
2018-02-06T11:01:00.860Z,33.97
2018-02-06T11:03:27.159Z,39.47
2018-02-06T11:05:53.443Z,35.30
2018-02-06T11:08:20.486Z,33.63
2018-02-06T11:10:46.736Z,27.93
2018-02-06T11:13:13.788Z,31.60
2018-02-06T11:15:40.125Z,29.40
2018-02-06T11:18:06.555Z,37.37
2018-02-06T11:20:32.883Z,40.30
2018-02-06T11:22:59.134Z,43.93
2018-02-06T11:25:25.346Z,38.07
2018-02-06T11:27:51.531Z,49.87
2018-02-06T11:30:18.509Z,44.03
2018-02-06T11:32:44.792Z,45.60
2018-02-06T11:35:11.058Z,38.40
2018-02-06T11:37:38.010Z,35.23
2018-02-06T11:40:04.256Z,35.73
2018-02-06T11:42:30.466Z,40.53
2018-02-06T11:44:57.159Z,32.80
2018-02-06T11:47:25.495Z,39.17
2018-02-06T11:49:52.166Z,40.90
2018-02-06T11:52:18.307Z,36.97
2018-02-06T11:54:45.358Z,39.47
2018-02-06T11:57:12.502Z,37.60
2018-02-06T11:59:39.509Z,39.73
2018-02-06T12:02:05.812Z,34.10
2018-02-06T12:04:32.198Z,36.87
2018-02-06T12:06:59.172Z,44.80
2018-02-06T12:09:26.144Z,39.37
2018-02-06T12:11:52.691Z,50.13
2018-02-06T12:14:19.126Z,46.07
2018-02-06T12:16:45.272Z,51.80
2018-02-06T12:19:11.441Z,37.27
2018-02-06T12:21:37.616Z,39.13
2018-02-06T12:24:03.877Z,45.23
2018-02-06T12:26:30.998Z,40.83
2018-02-06T12:28:57.226Z,42.27
2018-02-06T12:31:24.092Z,35.33
2018-02-06T12:33:51.531Z,36.20
2018-02-06T12:36:18.632Z,41.50
2018-02-06T12:38:45.020Z,37.70
2018-02-06T12:41:12.590Z,38.67
2018-02-06T12:43:38.867Z,38.50
2018-02-06T12:46:05.094Z,34.53
2018-02-06T12:48:31.419Z,38.70
2018-02-06T12:50:57.781Z,35.20
2018-02-06T12:53:24.079Z,45.07
2018-02-06T12:55:50.327Z,46.33
2018-02-06T12:58:16.617Z,41.40
2018-02-06T13:00:42.762Z,43.53
2018-02-06T13:03:09.042Z,40.47
2018-02-06T13:05:35.479Z,41.50
2018-02-06T13:08:02.833Z,42.97
2018-02-06T13:10:29.117Z,36.37
2018-02-06T13:12:55.501Z,41.70
2018-02-06T13:15:21.836Z,36.40
2018-02-06T13:17:48.283Z,56.70
2018-02-06T13:20:14.604Z,41.30
2018-02-06T13:22:40.857Z,34.67
2018-02-06T13:25:07.076Z,35.20
2018-02-06T13:27:33.430Z,39.83
2018-02-06T13:30:00.337Z,43.00
2018-02-06T13:32:26.625Z,39.97
2018-02-06T13:34:53.590Z,44.33
2018-02-06T13:37:19.953Z,39.70
2018-02-06T13:39:46.283Z,33.83
2018-02-06T13:42:12.631Z,36.30
2018-02-06T13:44:38.885Z,47.67
2018-02-06T13:47:05.182Z,33.13
2018-02-06T13:49:31.421Z,36.03
2018-02-06T13:51:58.374Z,33.10
2018-02-06T13:54:25.672Z,35.40
2018-02-06T13:56:52.006Z,32.90
2018-02-06T13:59:18.638Z,44.73
2018-02-06T14:01:45.242Z,31.40
2018-02-06T14:04:11.852Z,33.90
2018-02-06T14:06:38.960Z,39.13
2018-02-06T14:09:05.285Z,37.60
2018-02-06T14:11:31.591Z,40.60
2018-02-06T14:13:57.864Z,35.87
2018-02-06T14:16:25.224Z,36.03
2018-02-06T14:18:51.470Z,30.97
2018-02-06T14:21:18.669Z,34.60
2018-02-06T14:23:44.997Z,35.40
2018-02-06T14:26:11.431Z,37.00
2018-02-06T14:28:37.826Z,33.33
2018-02-06T14:31:04.039Z,37.37
2018-02-06T14:33:31.181Z,38.97
2018-02-06T14:35:58.100Z,31.90
2018-02-06T14:38:25.849Z,32.27
2018-02-06T14:40:52.225Z,40.50
2018-02-06T14:43:18.446Z,31.03
2018-02-06T14:45:46.057Z,31.67
2018-02-06T14:48:12.431Z,37.27
2018-02-06T14:50:39.463Z,31.17
2018-02-06T14:53:05.744Z,33.13
2018-02-06T14:55:32.122Z,38.07
2018-02-06T14:57:59.294Z,38.97
2018-02-06T15:00:25.894Z,38.80
2018-02-06T15:02:53.870Z,39.47
2018-02-06T15:05:21.056Z,33.67
2018-02-06T15:07:47.627Z,49.40
2018-02-06T15:10:14.053Z,41.30
2018-02-06T15:12:40.489Z,40.47
2018-02-06T15:15:06.926Z,41.90
2018-02-06T15:17:33.249Z,37.60
2018-02-06T15:19:59.692Z,36.20
2018-02-06T15:22:25.951Z,36.07
2018-02-06T15:24:53.184Z,37.20
2018-02-06T15:27:20.259Z,36.60
2018-02-06T15:29:46.674Z,43.67
2018-02-06T15:32:14.004Z,41.63
2018-02-06T15:34:40.335Z,35.03
2018-02-06T15:37:07.397Z,36.23
2018-02-06T15:39:34.499Z,32.30
2018-02-06T15:44:53.965Z,46.80
2018-02-06T15:47:20.443Z,44.80
2018-02-06T15:49:46.687Z,54.07
2018-02-06T15:52:13.088Z,39.63
2018-02-06T15:54:39.385Z,33.13
2018-02-06T15:57:06.065Z,40.97
2018-02-06T15:59:32.319Z,38.13
2018-02-06T16:01:59.434Z,32.10
2018-02-06T16:04:25.761Z,35.90
2018-02-06T16:06:52.093Z,40.63
2018-02-06T16:09:18.315Z,39.00
2018-02-06T16:11:44.682Z,33.80
2018-02-06T16:14:11.526Z,42.70
2018-02-06T16:16:38.581Z,50.93
2018-02-06T16:19:04.830Z,50.23
2018-02-06T16:21:31.398Z,42.43
2018-02-06T16:23:57.697Z,51.10
2018-02-06T16:26:24.109Z,40.00
2018-02-06T16:28:50.434Z,52.33
2018-02-06T16:31:16.820Z,47.93
2018-02-06T16:33:43.319Z,46.03
2018-02-06T16:36:09.775Z,42.90
2018-02-06T16:38:36.203Z,46.97
2018-02-06T16:41:02.632Z,40.13
2018-02-06T16:43:28.973Z,42.17
2018-02-06T16:45:55.507Z,45.10
2018-02-06T16:48:22.139Z,50.37
2018-02-06T16:50:48.791Z,51.27
2018-02-06T16:53:15.198Z,79.37
2018-02-06T16:55:41.561Z,68.07
2018-02-06T16:58:08.570Z,65.60
2018-02-06T17:00:35.084Z,64.97
2018-02-06T17:03:01.556Z,58.80
2018-02-06T17:05:28.524Z,54.17
2018-02-06T17:07:55.653Z,49.17
2018-02-06T17:10:22.786Z,48.97
2018-02-06T17:12:49.160Z,48.10
2018-02-06T17:15:16.461Z,56.40
2018-02-06T17:17:42.855Z,45.03
2018-02-06T17:20:09.198Z,44.00
2018-02-06T17:22:35.927Z,41.00
2018-02-06T17:25:02.388Z,42.17
2018-02-06T17:27:28.825Z,43.33
2018-02-06T17:29:55.089Z,42.53
2018-02-06T17:32:22.371Z,40.30
2018-02-06T17:34:49.145Z,51.97
2018-02-06T17:37:15.624Z,43.70
2018-02-06T17:39:42.105Z,40.90
2018-02-06T17:42:08.457Z,54.00
2018-02-06T17:44:35.627Z,57.70
2018-02-06T17:47:01.837Z,53.50
2018-02-06T17:49:28.962Z,51.47
2018-02-06T17:51:55.396Z,59.70
2018-02-06T17:54:21.911Z,65.63
2018-02-06T17:56:48.254Z,60.87
2018-02-06T17:59:14.714Z,67.93
2018-02-06T18:01:41.933Z,75.63
2018-02-06T18:04:08.267Z,59.90
2018-02-06T18:06:34.722Z,40.70
2018-02-06T18:09:02.064Z,44.50
2018-02-06T18:11:28.589Z,38.00
2018-02-06T18:13:56.258Z,45.43
2018-02-06T18:16:23.486Z,42.10
2018-02-06T18:18:49.850Z,43.70
2018-02-06T18:21:17.208Z,44.67
2018-02-06T18:23:44.253Z,47.73
2018-02-06T18:26:10.755Z,44.60
2018-02-06T18:28:37.014Z,45.93
2018-02-06T18:31:04.147Z,56.30
2018-02-06T18:33:31.441Z,49.43
2018-02-06T18:35:58.086Z,44.83
2018-02-06T18:38:24.376Z,39.53
2018-02-06T18:40:51.548Z,39.27
2018-02-06T18:43:17.938Z,38.63
2018-02-06T18:45:45.043Z,38.13
2018-02-06T18:48:11.605Z,43.63
2018-02-06T18:50:38.147Z,50.13
2018-02-06T18:53:04.469Z,45.13
2018-02-06T18:55:30.827Z,42.90
2018-02-06T18:57:57.937Z,38.27
2018-02-06T19:00:24.350Z,42.53
2018-02-06T19:02:50.804Z,45.27
2018-02-06T19:05:18.074Z,44.57
2018-02-06T19:07:44.504Z,50.63
2018-02-06T19:10:10.742Z,51.10
2018-02-06T19:12:37.174Z,54.70
2018-02-06T19:15:04.363Z,48.10
2018-02-06T19:17:30.639Z,43.47
2018-02-06T19:19:57.179Z,44.90
2018-02-06T19:22:24.990Z,43.40
2018-02-06T19:24:51.513Z,54.30
2018-02-06T19:27:18.110Z,44.67
2018-02-06T19:29:45.466Z,50.43
2018-02-06T19:32:12.738Z,54.30
2018-02-06T19:34:40.013Z,43.93
2018-02-06T19:37:06.379Z,57.20
2018-02-06T19:39:32.668Z,40.37
2018-02-06T19:41:59.447Z,53.07
2018-02-06T19:44:25.833Z,58.87
2018-02-06T19:46:52.218Z,101.97
2018-02-06T19:49:20.166Z,54.20
2018-02-06T19:51:46.737Z,46.03
2018-02-06T19:54:13.852Z,45.83
2018-02-06T19:56:40.321Z,48.50
2018-02-06T19:59:07.436Z,51.57
2018-02-06T20:01:34.002Z,45.27
2018-02-06T20:04:00.989Z,46.80
2018-02-06T20:06:27.260Z,43.67
2018-02-06T20:08:54.527Z,40.10
2018-02-06T20:11:21.079Z,44.80
2018-02-06T20:13:47.548Z,39.83
2018-02-06T20:16:13.887Z,43.67
2018-02-06T20:18:40.178Z,41.97
2018-02-06T20:21:06.547Z,51.37
2018-02-06T20:23:33.089Z,48.30
2018-02-06T20:26:00.662Z,52.07
2018-02-06T20:28:27.772Z,50.90
2018-02-06T20:30:54.193Z,45.27
2018-02-06T20:33:20.655Z,50.67
2018-02-06T20:35:46.997Z,44.70
2018-02-06T20:38:14.302Z,45.50
2018-02-06T20:40:41.317Z,51.93
2018-02-06T20:43:08.529Z,51.77
2018-02-06T20:45:34.898Z,50.60
2018-02-06T20:48:02.021Z,45.77
2018-02-06T20:50:28.546Z,54.33
2018-02-06T20:52:54.935Z,48.57
2018-02-06T20:55:21.310Z,45.97
2018-02-06T20:57:49.259Z,51.63
2018-02-06T21:00:15.714Z,57.43
2018-02-06T21:02:43.107Z,53.17
2018-02-06T21:05:09.473Z,52.47
2018-02-06T21:07:35.906Z,56.10
2018-02-06T21:10:02.447Z,51.83
2018-02-06T21:12:29.193Z,53.40
2018-02-06T21:14:56.303Z,47.90
2018-02-06T21:17:22.944Z,45.20
2018-02-06T21:19:49.394Z,51.33
2018-02-06T21:22:15.929Z,71.27
2018-02-06T21:24:42.564Z,80.10
2018-02-06T21:27:08.875Z,124.90
2018-02-06T21:29:35.433Z,97.63
2018-02-06T21:32:01.757Z,135.93
2018-02-06T21:34:28.299Z,109.70
2018-02-06T21:36:54.694Z,75.73
2018-02-06T21:39:20.953Z,79.17
2018-02-06T21:41:47.292Z,82.93
2018-02-06T21:44:14.030Z,98.47
2018-02-06T21:46:41.182Z,131.60
2018-02-06T21:49:07.770Z,154.90
2018-02-06T21:51:34.187Z,167.40
2018-02-06T21:54:00.891Z,135.30
2018-02-06T21:56:28.011Z,123.30
2018-02-06T21:58:54.544Z,84.73
2018-02-06T22:01:20.997Z,99.93
2018-02-06T22:03:48.278Z,78.30
2018-02-06T22:06:15.430Z,72.40
2018-02-06T22:08:41.874Z,70.90
2018-02-06T22:11:08.233Z,79.27
2018-02-06T22:13:34.515Z,79.47
2018-02-06T22:16:02.016Z,68.67
2018-02-06T22:18:28.441Z,73.13
2018-02-06T22:20:54.784Z,75.70
2018-02-06T22:23:21.623Z,63.90
2018-02-06T22:25:48.261Z,64.37
2018-02-06T22:28:14.931Z,66.10
2018-02-06T22:30:42.338Z,63.07
2018-02-06T22:33:08.939Z,59.47
2018-02-06T22:35:35.331Z,63.43
2018-02-06T22:38:01.609Z,61.13
2018-02-06T22:40:27.983Z,59.53
2018-02-06T22:42:54.328Z,70.57
2018-02-06T22:45:21.521Z,56.37
2018-02-06T22:47:48.089Z,51.97
2018-02-06T22:50:14.498Z,44.93
2018-02-06T22:52:41.235Z,51.13
2018-02-06T22:55:07.756Z,52.33
2018-02-06T22:57:34.014Z,48.13
2018-02-06T23:00:00.346Z,53.10
2018-02-06T23:02:26.841Z,48.73
2018-02-06T23:04:53.537Z,44.37
2018-02-06T23:07:20.057Z,41.37
2018-02-06T23:09:46.429Z,44.60
2018-02-06T23:12:12.791Z,35.73
2018-02-06T23:14:39.714Z,36.40
2018-02-06T23:17:06.198Z,44.03
2018-02-06T23:19:32.655Z,44.83
2018-02-06T23:21:59.899Z,43.60
2018-02-06T23:24:26.899Z,38.90
2018-02-06T23:26:53.355Z,43.87
2018-02-06T23:29:20.625Z,42.67
2018-02-06T23:31:47.698Z,38.97
2018-02-06T23:34:13.963Z,40.13
2018-02-06T23:36:40.331Z,40.43
2018-02-06T23:39:07.522Z,40.37
2018-02-06T23:41:33.750Z,35.23
2018-02-06T23:44:00.757Z,42.03
2018-02-06T23:46:27.700Z,41.37
2018-02-06T23:48:54.754Z,38.60
2018-02-06T23:51:21.796Z,53.70
2018-02-06T23:53:48.939Z,38.97
2018-02-06T23:56:16.285Z,43.17
2018-02-06T23:58:43.277Z,36.60
